Time;durP1;ratioP1;P1;durP2;ratioP2;P2;SDS_P1;SDS_P2;PMS_P1;PMS_P2;Temp;Humidity;BMP_temperature;BMP_pressure;BME280_temperature;BME280_humidity;BME280_pressure;Samples;Min_cycle;Max_cycle;Signal;HPM_P1;HPM_P2
2023/12/26 00:02:20;;;;;;;20.40;4.07;;;;;;;;;;5074290;28;20652;-81
2023/12/26 00:04:47;;;;;;;21.23;4.70;;;;;;;;;;5074008;28;20249;-82
2023/12/26 00:07:15;;;;;;;20.30;4.53;;;;;;;;;;5073696;28;20211;-82
2023/12/26 00:09:42;;;;;;;24.23;4.97;;;;;;;;;;5073733;28;20226;-79
2023/12/26 00:12:09;;;;;;;26.50;5.40;;;;;;;;;;5073323;28;20215;-80
2023/12/26 00:14:37;;;;;;;17.43;3.70;;;;;;;;;;5073192;28;20671;-83
2023/12/26 00:17:04;;;;;;;12.53;4.10;;;;;;;;;;5073871;28;20195;-83
2023/12/26 00:19:31;;;;;;;14.10;3.60;;;;;;;;;;5073942;28;20199;-83
2023/12/26 00:21:59;;;;;;;11.13;3.10;;;;;;;;;;5073903;28;20235;-83
2023/12/26 00:24:26;;;;;;;17.57;3.23;;;;;;;;;;5073783;28;20195;-82
2023/12/26 00:26:53;;;;;;;11.60;3.33;;;;;;;;;;5074149;28;20191;-83
2023/12/26 00:29:20;;;;;;;13.60;3.33;;;;;;;;;;5073949;28;20223;-83
2023/12/26 00:31:48;;;;;;;15.90;3.20;;;;;;;;;;5073342;28;20253;-83
2023/12/26 00:34:15;;;;;;;20.90;4.33;;;;;;;;;;5072413;28;20208;-82
2023/12/26 00:36:42;;;;;;;13.80;3.57;;;;;;;;;;5056480;28;20286;-82
2023/12/26 00:39:11;;;;;;;17.13;2.83;;;;;;;;;;5073905;28;20211;-80
2023/12/26 00:41:38;;;;;;;18.23;2.87;;;;;;;;;;5072814;28;20321;-84
2023/12/26 00:44:06;;;;;;;34.43;6.13;;;;;;;;;;5074219;28;20196;-82
2023/12/26 00:46:33;;;;;;;12.80;2.90;;;;;;;;;;5073310;28;20202;-82
2023/12/26 00:49:00;;;;;;;19.23;3.20;;;;;;;;;;5072044;28;20222;-82
2023/12/26 00:51:29;;;;;;;26.67;5.07;;;;;;;;;;5071876;28;20227;-82
2023/12/26 00:53:56;;;;;;;12.20;2.80;;;;;;;;;;5071987;28;20657;-82
2023/12/26 00:56:24;;;;;;;14.77;2.57;;;;;;;;;;5072763;28;20632;-82
2023/12/26 00:58:51;;;;;;;53.07;12.37;;;;;;;;;;5073266;28;20207;-82
2023/12/26 01:01:18;;;;;;;26.83;4.17;;;;;;;;;;5072908;28;20202;-82
2023/12/26 01:03:46;;;;;;;15.20;2.40;;;;;;;;;;5071784;28;20195;-82
2023/12/26 01:06:14;;;;;;;22.97;4.70;;;;;;;;;;5071961;28;20541;-83
2023/12/26 01:08:42;;;;;;;12.40;2.40;;;;;;;;;;5071393;28;20199;-79
2023/12/26 01:11:09;;;;;;;17.97;4.00;;;;;;;;;;5070766;28;20227;-80
2023/12/26 01:13:37;;;;;;;28.77;3.37;;;;;;;;;;5072216;28;20205;-80
2023/12/26 01:16:05;;;;;;;19.97;3.20;;;;;;;;;;5070910;28;20207;-80
2023/12/26 01:18:32;;;;;;;25.17;4.17;;;;;;;;;;5070799;28;20303;-82
2023/12/26 01:21:00;;;;;;;16.07;4.13;;;;;;;;;;5072596;28;20195;-83
2023/12/26 01:23:27;;;;;;;19.90;4.03;;;;;;;;;;5071139;28;20239;-82
2023/12/26 01:25:54;;;;;;;19.67;3.43;;;;;;;;;;5072367;28;20202;-82
2023/12/26 01:28:21;;;;;;;14.90;2.80;;;;;;;;;;5071550;28;20248;-82
2023/12/26 01:30:49;;;;;;;13.63;2.27;;;;;;;;;;5071678;28;20226;-82
2023/12/26 01:33:16;;;;;;;9.40;2.07;;;;;;;;;;5072699;28;20265;-82
2023/12/26 01:35:43;;;;;;;16.93;3.33;;;;;;;;;;5072367;28;20204;-82
2023/12/26 01:38:10;;;;;;;27.47;4.57;;;;;;;;;;5072015;28;20207;-82
2023/12/26 01:40:40;;;;;;;18.00;3.83;;;;;;;;;;5070760;28;20215;-81
2023/12/26 01:43:08;;;;;;;31.13;7.20;;;;;;;;;;5071006;28;20230;-82
2023/12/26 01:45:35;;;;;;;23.37;4.70;;;;;;;;;;5070124;28;20211;-82
2023/12/26 01:48:04;;;;;;;19.70;4.73;;;;;;;;;;5070702;28;20667;-82
2023/12/26 01:50:32;;;;;;;16.30;3.47;;;;;;;;;;5071362;28;20231;-82
2023/12/26 01:53:00;;;;;;;29.23;7.73;;;;;;;;;;5053717;28;20265;-86
2023/12/26 01:55:28;;;;;;;16.27;3.93;;;;;;;;;;5072077;28;20206;-86
2023/12/26 01:57:56;;;;;;;21.90;3.60;;;;;;;;;;5055218;28;20656;-86
2023/12/26 02:00:23;;;;;;;16.77;4.10;;;;;;;;;;5055712;28;20210;-87
2023/12/26 02:02:52;;;;;;;14.27;3.20;;;;;;;;;;5071980;28;20222;-87
2023/12/26 02:05:21;;;;;;;16.83;5.87;;;;;;;;;;5055801;28;20199;-86
2023/12/26 02:07:48;;;;;;;32.63;5.50;;;;;;;;;;5055298;28;20215;-86
2023/12/26 02:10:15;;;;;;;43.53;8.77;;;;;;;;;;5071786;28;20218;-86
2023/12/26 02:12:43;;;;;;;37.07;6.40;;;;;;;;;;5071637;28;20210;-87
2023/12/26 02:15:10;;;;;;;31.03;8.10;;;;;;;;;;5072567;28;20207;-87
2023/12/26 02:17:38;;;;;;;17.43;3.90;;;;;;;;;;5072661;28;20257;-87
2023/12/26 02:20:07;;;;;;;18.53;4.10;;;;;;;;;;5054706;28;20211;-87
2023/12/26 02:22:34;;;;;;;28.53;5.60;;;;;;;;;;5075095;28;20235;-87
2023/12/26 02:25:01;;;;;;;16.83;4.30;;;;;;;;;;5076552;28;20293;-87
2023/12/26 02:27:29;;;;;;;36.80;10.03;;;;;;;;;;5075179;28;20203;-84
2023/12/26 02:29:57;;;;;;;21.93;5.07;;;;;;;;;;5074867;28;20215;-84
2023/12/26 02:32:25;;;;;;;37.70;6.27;;;;;;;;;;5058421;28;20195;-84
2023/12/26 02:35:00;;;;;;;20.13;3.73;;;;;;;;;;5075353;28;20238;-85
2023/12/26 02:37:29;;;;;;;27.30;9.90;;;;;;;;;;5076331;28;20211;-84
2023/12/26 02:39:56;;;;;;;21.00;4.10;;;;;;;;;;5075610;28;20203;-84
2023/12/26 02:42:29;;;;;;;24.57;5.13;;;;;;;;;;5076598;28;20640;-84
2023/12/26 02:44:57;;;;;;;32.23;5.87;;;;;;;;;;5076422;28;20188;-84
2023/12/26 02:47:25;;;;;;;22.37;7.03;;;;;;;;;;5074788;28;20210;-84
2023/12/26 02:49:52;;;;;;;19.30;5.03;;;;;;;;;;5074681;28;20290;-85
2023/12/26 02:52:19;;;;;;;26.40;3.83;;;;;;;;;;5075086;28;20203;-83
2023/12/26 02:54:46;;;;;;;40.50;7.33;;;;;;;;;;5075658;28;20655;-84
2023/12/26 02:57:13;;;;;;;24.27;5.03;;;;;;;;;;5074611;28;20203;-86
2023/12/26 02:59:40;;;;;;;52.47;12.40;;;;;;;;;;5076256;28;20256;-87
2023/12/26 03:02:07;;;;;;;58.17;10.97;;;;;;;;;;5075123;28;20215;-86
2023/12/26 03:04:35;;;;;;;68.67;12.40;;;;;;;;;;5076125;28;20203;-87
2023/12/26 03:07:02;;;;;;;31.57;5.60;;;;;;;;;;5076391;28;20204;-86
2023/12/26 03:09:29;;;;;;;30.33;13.67;;;;;;;;;;5076169;28;20207;-87
2023/12/26 03:11:57;;;;;;;45.57;10.03;;;;;;;;;;5076560;28;20219;-86
2023/12/26 03:14:24;;;;;;;32.97;7.00;;;;;;;;;;5076184;28;20195;-87
2023/12/26 03:16:51;;;;;;;53.40;10.43;;;;;;;;;;5076060;28;20191;-86
2023/12/26 03:19:18;;;;;;;41.60;12.50;;;;;;;;;;5075676;28;20691;-86
2023/12/26 03:21:45;;;;;;;43.13;9.70;;;;;;;;;;5074430;28;20242;-86
2023/12/26 03:24:12;;;;;;;26.93;5.73;;;;;;;;;;5076451;28;20249;-85
2023/12/26 03:26:40;;;;;;;25.13;6.07;;;;;;;;;;5075495;28;20230;-86
2023/12/26 03:29:08;;;;;;;51.03;10.47;;;;;;;;;;5074588;28;20668;-86
2023/12/26 03:31:42;;;;;;;28.97;9.17;;;;;;;;;;5074034;28;20683;-82
2023/12/26 03:34:09;;;;;;;53.10;10.53;;;;;;;;;;5074393;28;20204;-83
2023/12/26 03:36:42;;;;;;;31.87;6.97;;;;;;;;;;5074526;28;20249;-87
2023/12/26 03:39:10;;;;;;;34.93;7.03;;;;;;;;;;5075294;28;20541;-86
2023/12/26 03:41:37;;;;;;;35.43;15.93;;;;;;;;;;5075776;28;20633;-87
2023/12/26 03:44:06;;;;;;;32.07;6.40;;;;;;;;;;5075351;28;20199;-86
2023/12/26 03:46:33;;;;;;;64.43;11.90;;;;;;;;;;5074018;28;20211;-87
2023/12/26 03:49:01;;;;;;;53.23;10.83;;;;;;;;;;5075266;28;20200;-86
2023/12/26 03:51:28;;;;;;;67.27;14.10;;;;;;;;;;5073994;28;20242;-87
2023/12/26 03:53:55;;;;;;;33.07;9.50;;;;;;;;;;5073781;28;20203;-85
2023/12/26 03:56:23;;;;;;;43.83;8.43;;;;;;;;;;5073881;28;20202;-85
2023/12/26 03:58:50;;;;;;;16.70;4.50;;;;;;;;;;5074373;28;20201;-85
2023/12/26 04:01:17;;;;;;;16.23;4.10;;;;;;;;;;5073485;28;20195;-86
2023/12/26 04:03:45;;;;;;;31.30;10.10;;;;;;;;;;5073785;28;20632;-84
2023/12/26 04:06:12;;;;;;;14.87;3.90;;;;;;;;;;5073141;28;20207;-83
2023/12/26 04:08:39;;;;;;;15.73;4.23;;;;;;;;;;5073246;28;20204;-83
2023/12/26 04:11:07;;;;;;;17.20;3.73;;;;;;;;;;5072875;28;20226;-84
2023/12/26 04:13:34;;;;;;;50.73;16.30;;;;;;;;;;5056487;28;20199;-84
2023/12/26 04:16:01;;;;;;;24.20;6.30;;;;;;;;;;5073306;28;20188;-84
2023/12/26 04:18:28;;;;;;;32.50;6.53;;;;;;;;;;5073087;28;20199;-84
2023/12/26 04:20:56;;;;;;;32.03;6.73;;;;;;;;;;5072823;28;20291;-84
2023/12/26 04:23:23;;;;;;;34.43;7.83;;;;;;;;;;5056110;28;20227;-84
2023/12/26 04:25:51;;;;;;;34.40;11.23;;;;;;;;;;5072926;28;20680;-84
2023/12/26 04:28:18;;;;;;;26.07;5.83;;;;;;;;;;5072856;28;20234;-83
2023/12/26 04:30:47;;;;;;;26.70;4.90;;;;;;;;;;5072648;28;20214;-84
2023/12/26 04:33:14;;;;;;;21.60;5.53;;;;;;;;;;5073235;28;20209;-84
2023/12/26 04:35:43;;;;;;;50.57;17.47;;;;;;;;;;5071852;28;20223;-86
2023/12/26 04:38:10;;;;;;;24.00;5.83;;;;;;;;;;5052879;28;20611;-85
2023/12/26 04:40:38;;;;;;;39.67;8.10;;;;;;;;;;5053036;28;20222;-85
2023/12/26 04:43:08;;;;;;;19.47;4.53;;;;;;;;;;5052555;28;20227;-85
2023/12/26 04:45:38;;;;;;;41.80;10.17;;;;;;;;;;5053502;28;20245;-84
2023/12/26 04:48:07;;;;;;;24.40;5.67;;;;;;;;;;5052724;28;20286;-84
2023/12/26 04:50:36;;;;;;;18.20;5.63;;;;;;;;;;5053880;28;20326;-84
2023/12/26 04:53:06;;;;;;;20.53;4.93;;;;;;;;;;5052455;28;20204;-83
2023/12/26 04:55:35;;;;;;;20.20;5.23;;;;;;;;;;5052346;28;20207;-88
2023/12/26 04:58:02;;;;;;;20.97;7.70;;;;;;;;;;5052694;28;20211;-87
2023/12/26 05:00:30;;;;;;;21.37;5.07;;;;;;;;;;5051688;28;20208;-83
2023/12/26 05:02:57;;;;;;;35.73;7.83;;;;;;;;;;5051991;28;20211;-84
2023/12/26 05:05:25;;;;;;;37.60;8.17;;;;;;;;;;5051774;28;20216;-84
2023/12/26 05:07:52;;;;;;;25.43;9.87;;;;;;;;;;5053004;28;20204;-84
2023/12/26 05:10:20;;;;;;;23.73;6.43;;;;;;;;;;5052362;28;20278;-84
2023/12/26 05:12:47;;;;;;;17.60;4.20;;;;;;;;;;5051906;28;20208;-84
2023/12/26 05:15:14;;;;;;;16.67;4.73;;;;;;;;;;5051017;28;20219;-82
2023/12/26 05:17:41;;;;;;;23.77;8.00;;;;;;;;;;5052645;28;20210;-84
2023/12/26 05:20:10;;;;;;;14.30;4.80;;;;;;;;;;5051750;28;20207;-83
2023/12/26 05:22:56;;;;;;;37.70;7.47;;;;;;;;;;5051470;28;20228;-84
2023/12/26 05:25:24;;;;;;;31.23;7.07;;;;;;;;;;5051527;28;20204;-82
2023/12/26 05:27:52;;;;;;;25.07;6.27;;;;;;;;;;5052209;28;20286;-84
2023/12/26 05:30:19;;;;;;;30.60;12.37;;;;;;;;;;5053343;28;20208;-84
2023/12/26 05:32:47;;;;;;;23.43;6.20;;;;;;;;;;5035462;28;20208;-83
2023/12/26 05:35:17;;;;;;;58.30;12.47;;;;;;;;;;5051750;28;20196;-85
2023/12/26 05:37:45;;;;;;;23.43;6.83;;;;;;;;;;5051064;28;20258;-85
2023/12/26 05:40:12;;;;;;;106.27;43.37;;;;;;;;;;5052546;28;20212;-88
2023/12/26 05:42:39;;;;;;;36.43;8.87;;;;;;;;;;5052114;28;20680;-86
2023/12/26 05:45:07;;;;;;;49.10;9.95;;;;;;;;;;5052205;28;20193;-86
2023/12/26 05:47:34;;;;;;;76.43;14.90;;;;;;;;;;5068870;28;20200;-85
2023/12/26 05:50:03;;;;;;;83.95;20.33;;;;;;;;;;5052596;28;20192;-88
2023/12/26 05:52:30;;;;;;;26.53;8.13;;;;;;;;;;5052036;28;20578;-82
2023/12/26 05:54:58;;;;;;;40.58;9.20;;;;;;;;;;5033893;28;20196;-81
2023/12/26 05:57:25;;;;;;;26.27;7.30;;;;;;;;;;5067601;28;20211;-87
2023/12/26 05:59:53;;;;;;;39.23;8.90;;;;;;;;;;5051526;28;20208;-85
2023/12/26 06:02:20;;;;;;;96.93;33.90;;;;;;;;;;5051363;28;20207;-83
2023/12/26 06:04:47;;;;;;;139.73;25.93;;;;;;;;;;5052236;28;20243;-85
2023/12/26 06:07:14;;;;;;;47.13;11.80;;;;;;;;;;5052552;28;20214;-86
2023/12/26 06:09:42;;;;;;;41.37;10.00;;;;;;;;;;5051343;28;20250;-82
2023/12/26 06:12:09;;;;;;;99.93;43.17;;;;;;;;;;5052113;28;20231;-85
2023/12/26 06:14:38;;;;;;;80.27;16.47;;;;;;;;;;5052469;28;20207;-82
2023/12/26 06:17:06;;;;;;;104.03;20.43;;;;;;;;;;5051155;28;20204;-81
2023/12/26 06:19:33;;;;;;;64.50;14.83;;;;;;;;;;5052151;28;20659;-87
2023/12/26 06:22:00;;;;;;;115.80;30.57;;;;;;;;;;5051080;28;20323;-84
2023/12/26 06:24:28;;;;;;;42.90;12.80;;;;;;;;;;5050748;28;20230;-83
2023/12/26 06:26:55;;;;;;;80.53;16.37;;;;;;;;;;5050934;28;20196;-85
2023/12/26 06:29:23;;;;;;;91.10;20.10;;;;;;;;;;5051653;28;20240;-85
2023/12/26 06:31:50;;;;;;;51.47;21.23;;;;;;;;;;5050889;28;20242;-85
2023/12/26 06:34:17;;;;;;;187.90;92.20;;;;;;;;;;5050815;28;20674;-85
2023/12/26 06:36:44;;;;;;;853.57;500.57;;;;;;;;;;5052427;28;20700;-87
2023/12/26 06:39:12;;;;;;;637.43;371.67;;;;;;;;;;5068449;28;20231;-85
2023/12/26 06:41:40;;;;;;;480.45;285.50;;;;;;;;;;5070004;28;20234;-84
2023/12/26 06:44:07;;;;;;;214.37;136.47;;;;;;;;;;5069718;28;20227;-84
2023/12/26 06:46:42;;;;;;;182.50;104.47;;;;;;;;;;5052559;28;20285;-85
2023/12/26 06:49:16;;;;;;;154.17;43.80;;;;;;;;;;5053682;28;20237;-83
2023/12/26 06:51:46;;;;;;;68.93;24.20;;;;;;;;;;5049724;28;20238;-83
2023/12/26 06:54:14;;;;;;;121.50;35.10;;;;;;;;;;5065702;28;20223;-83
2023/12/26 06:56:41;;;;;;;58.90;20.23;;;;;;;;;;5070040;28;20265;-84
2023/12/26 06:59:08;;;;;;;43.97;13.60;;;;;;;;;;5069841;28;20235;-84
2023/12/26 07:01:36;;;;;;;66.50;18.63;;;;;;;;;;5069906;28;20251;-83
2023/12/26 07:04:05;;;;;;;53.03;16.77;;;;;;;;;;5069606;28;20231;-84
2023/12/26 07:06:32;;;;;;;42.20;18.40;;;;;;;;;;5071018;28;20254;-82
2023/12/26 07:09:00;;;;;;;41.30;14.47;;;;;;;;;;5074472;28;20235;-83
2023/12/26 07:11:28;;;;;;;43.75;12.82;;;;;;;;;;5073655;28;20625;-83
2023/12/26 07:13:55;;;;;;;42.88;12.05;;;;;;;;;;5075520;28;20235;-84
2023/12/26 07:16:22;;;;;;;61.10;22.85;;;;;;;;;;5074541;28;20926;-84
2023/12/26 07:18:50;;;;;;;38.92;12.18;;;;;;;;;;5074585;28;20240;-84
2023/12/26 07:21:18;;;;;;;34.72;11.02;;;;;;;;;;5074601;28;20235;-86
2023/12/26 07:23:46;;;;;;;35.50;10.50;;;;;;;;;;5087046;28;20238;-86
2023/12/26 07:26:14;;;;;;;34.33;10.82;;;;;;;;;;5094569;28;20321;-86
2023/12/26 07:28:41;;;;;;;28.27;10.30;;;;;;;;;;5094452;28;20336;-84
2023/12/26 07:31:08;;;;;;;47.53;12.73;;;;;;;;;;5095967;28;20292;-85
2023/12/26 07:33:35;;;;;;;36.22;17.48;;;;;;;;;;5097689;28;20683;-84
2023/12/26 07:36:10;;;;;;;100.72;25.15;;;;;;;;;;5094653;28;20234;-83
2023/12/26 07:38:37;;;;;;;52.65;22.65;;;;;;;;;;5092744;28;20233;-83
2023/12/26 07:41:04;;;;;;;61.75;17.52;;;;;;;;;;5094442;28;20725;-84
2023/12/26 07:43:32;;;;;;;37.92;10.98;;;;;;;;;;5094441;28;20259;-84
2023/12/26 07:45:59;;;;;;;31.10;8.52;;;;;;;;;;5094314;28;20233;-83
2023/12/26 07:48:26;;;;;;;34.95;13.05;;;;;;;;;;5093887;28;20679;-83
2023/12/26 07:50:53;;;;;;;26.77;7.93;;;;;;;;;;5093931;28;20223;-82
2023/12/26 07:53:21;;;;;;;48.50;11.15;;;;;;;;;;5074166;28;20231;-84
2023/12/26 07:55:48;;;;;;;27.83;7.15;;;;;;;;;;5054302;28;20257;-84
2023/12/26 07:58:16;;;;;;;23.35;6.72;;;;;;;;;;5053985;28;20227;-83
2023/12/26 08:00:44;;;;;;;16.58;6.07;;;;;;;;;;5053549;28;20236;-84
2023/12/26 08:03:15;;;;;;;24.23;7.35;;;;;;;;;;5053993;28;20228;-84
2023/12/26 08:05:43;;;;;;;22.58;6.20;;;;;;;;;;5053803;28;20589;-83
2023/12/26 08:08:11;;;;;;;22.30;6.23;;;;;;;;;;5053583;28;20227;-84
2023/12/26 08:10:38;;;;;;;28.55;15.15;;;;;;;;;;5053384;28;20648;-83
2023/12/26 08:13:05;;;;;;;26.93;7.27;;;;;;;;;;5053800;28;20239;-84
2023/12/26 08:15:32;;;;;;;33.80;9.10;;;;;;;;;;5053714;28;20232;-83
2023/12/26 08:17:59;;;;;;;55.90;11.77;;;;;;;;;;5053057;28;20232;-83
2023/12/26 08:20:27;;;;;;;113.70;38.05;;;;;;;;;;5053364;28;20238;-83
2023/12/26 08:22:54;;;;;;;39.67;12.70;;;;;;;;;;5058870;28;20708;-84
2023/12/26 08:25:21;;;;;;;28.88;8.93;;;;;;;;;;5072865;28;20242;-83
2023/12/26 08:27:48;;;;;;;16.50;7.20;;;;;;;;;;5074022;28;20227;-83
2023/12/26 08:30:16;;;;;;;13.65;6.63;;;;;;;;;;5072966;28;20292;-84
2023/12/26 08:32:43;;;;;;;20.23;10.07;;;;;;;;;;5072772;28;20246;-84
2023/12/26 08:35:10;;;;;;;49.90;13.52;;;;;;;;;;5075188;28;20323;-83
2023/12/26 08:37:38;;;;;;;30.52;9.70;;;;;;;;;;5072605;28;20277;-83
2023/12/26 08:40:05;;;;;;;24.65;10.60;;;;;;;;;;5072271;28;20219;-83
2023/12/26 08:42:33;;;;;;;26.88;11.25;;;;;;;;;;5068197;28;20227;-83
2023/12/26 08:45:00;;;;;;;20.45;7.78;;;;;;;;;;5072888;28;20238;-83
2023/12/26 08:47:27;;;;;;;15.68;6.45;;;;;;;;;;5072747;28;20277;-83
2023/12/26 08:49:56;;;;;;;39.38;11.45;;;;;;;;;;5072735;28;20231;-83
2023/12/26 08:52:24;;;;;;;18.60;6.93;;;;;;;;;;5071964;28;20266;-83
2023/12/26 08:54:51;;;;;;;11.90;5.80;;;;;;;;;;5071475;28;20284;-83
2023/12/26 08:57:18;;;;;;;19.23;6.55;;;;;;;;;;5072784;28;20219;-83
2023/12/26 08:59:45;;;;;;;17.88;6.05;;;;;;;;;;5072047;28;20227;-83
2023/12/26 09:02:12;;;;;;;15.30;5.55;;;;;;;;;;5072536;28;20223;-83
2023/12/26 09:04:39;;;;;;;29.33;13.63;;;;;;;;;;5072295;28;20281;-83
2023/12/26 09:07:06;;;;;;;14.40;5.68;;;;;;;;;;5071911;28;20231;-84
2023/12/26 09:09:34;;;;;;;13.80;6.05;;;;;;;;;;5071029;28;20235;-83
2023/12/26 09:12:01;;;;;;;9.55;4.93;;;;;;;;;;5072039;28;20238;-84
2023/12/26 09:14:28;;;;;;;11.55;6.65;;;;;;;;;;5071217;28;20742;-82
2023/12/26 09:16:55;;;;;;;11.65;5.85;;;;;;;;;;5072595;28;20235;-84
2023/12/26 09:19:22;;;;;;;15.05;6.53;;;;;;;;;;5072305;28;20224;-84
2023/12/26 09:21:50;;;;;;;27.83;8.82;;;;;;;;;;5070977;28;20296;-83
2023/12/26 09:24:17;;;;;;;16.13;6.50;;;;;;;;;;5088524;28;20782;-84
2023/12/26 09:26:44;;;;;;;11.07;6.68;;;;;;;;;;5081398;28;20657;-84
2023/12/26 09:29:11;;;;;;;15.02;7.18;;;;;;;;;;5071701;28;20687;-83
2023/12/26 09:31:38;;;;;;;16.15;7.05;;;;;;;;;;5071467;28;20227;-83
2023/12/26 09:34:05;;;;;;;9.52;6.13;;;;;;;;;;5071923;28;20749;-81
2023/12/26 09:36:33;;;;;;;13.82;8.80;;;;;;;;;;5071036;28;20223;-83
2023/12/26 09:39:00;;;;;;;13.70;6.40;;;;;;;;;;5071291;28;20243;-83
2023/12/26 09:41:27;;;;;;;14.65;6.68;;;;;;;;;;5071367;28;20698;-83
2023/12/26 09:43:56;;;;;;;14.63;6.85;;;;;;;;;;5070601;28;20227;-82
2023/12/26 09:46:23;;;;;;;25.75;11.80;;;;;;;;;;5071291;28;20703;-83
2023/12/26 09:48:50;;;;;;;20.63;8.18;;;;;;;;;;5070617;28;20726;-85
2023/12/26 09:51:22;;;;;;;19.52;6.85;;;;;;;;;;5070870;28;20242;-84
2023/12/26 09:53:59;;;;;;;17.02;6.55;;;;;;;;;;5069740;28;20234;-83
2023/12/26 09:56:28;;;;;;;11.65;5.30;;;;;;;;;;5069471;28;20237;-83
2023/12/26 09:58:55;;;;;;;10.38;5.72;;;;;;;;;;5069053;28;20223;-83
2023/12/26 10:01:23;;;;;;;9.13;4.50;;;;;;;;;;5069379;28;20726;-83
2023/12/26 10:03:50;;;;;;;27.20;10.68;;;;;;;;;;5071404;28;20227;-83
2023/12/26 10:06:18;;;;;;;9.00;4.60;;;;;;;;;;5070834;28;20234;-83
2023/12/26 10:08:45;;;;;;;7.38;5.10;;;;;;;;;;5070532;28;21016;-83
2023/12/26 10:11:15;;;;;;;8.93;4.60;;;;;;;;;;5071114;28;20235;-84
2023/12/26 10:13:44;;;;;;;16.58;6.07;;;;;;;;;;5070928;28;20289;-83
2023/12/26 10:16:11;;;;;;;13.07;5.30;;;;;;;;;;5071176;28;20559;-83
2023/12/26 10:18:39;;;;;;;14.13;6.47;;;;;;;;;;5070989;28;20234;-82
2023/12/26 10:21:06;;;;;;;12.07;4.97;;;;;;;;;;5052879;28;20277;-83
2023/12/26 10:23:34;;;;;;;9.40;4.03;;;;;;;;;;5059582;28;20232;-83
2023/12/26 10:26:02;;;;;;;11.25;6.00;;;;;;;;;;5052276;28;20640;-83
2023/12/26 10:28:35;;;;;;;9.82;5.30;;;;;;;;;;5069955;28;20266;-84
2023/12/26 10:31:18;;;;;;;13.98;7.97;;;;;;;;;;5069603;28;20615;-82
2023/12/26 10:33:45;;;;;;;15.18;7.78;;;;;;;;;;5071154;28;20239;-83
2023/12/26 10:36:12;;;;;;;14.65;8.70;;;;;;;;;;5069179;28;20227;-83
2023/12/26 10:38:40;;;;;;;20.33;7.50;;;;;;;;;;5067779;28;20277;-84
2023/12/26 10:41:20;;;;;;;8.95;6.80;;;;;;;;;;5070355;28;20699;-83
2023/12/26 10:43:49;;;;;;;18.58;6.80;;;;;;;;;;5072558;28;20672;-83
2023/12/26 10:46:17;;;;;;;17.52;7.97;;;;;;;;;;5074948;28;20220;-83
2023/12/26 10:48:47;;;;;;;24.05;8.50;;;;;;;;;;5073811;28;20223;-83
2023/12/26 10:51:15;;;;;;;23.65;10.00;;;;;;;;;;5073799;28;20234;-83
2023/12/26 10:54:24;;;;;;;18.33;7.18;;;;;;;;;;5073902;28;20607;-82
2023/12/26 10:56:55;;;;;;;20.42;8.57;;;;;;;;;;5061001;28;20242;-83
2023/12/26 13:53:31;;;;;;;6.05;2.17;;;;;;;;;;5071652;28;20223;-83
2023/12/26 13:55:58;;;;;;;3.50;1.58;;;;;;;;;;5071359;28;20223;-84
2023/12/26 13:59:02;;;;;;;3.05;1.55;;;;;;;;;;5070949;28;20231;-84
2023/12/26 14:01:30;;;;;;;3.28;1.23;;;;;;;;;;5071834;28;20227;-84
2023/12/26 14:04:34;;;;;;;3.65;1.88;;;;;;;;;;5071265;28;20224;-83
2023/12/26 14:07:06;;;;;;;2.78;1.52;;;;;;;;;;5070873;28;20235;-84
2023/12/26 14:10:10;;;;;;;3.53;1.92;;;;;;;;;;5071563;28;20238;-84
2023/12/26 14:12:38;;;;;;;3.63;1.52;;;;;;;;;;5071382;28;20238;-84
2023/12/26 14:15:42;;;;;;;1.77;1.40;;;;;;;;;;5070962;28;20231;-84
2023/12/26 14:18:09;;;;;;;7.05;2.78;;;;;;;;;;5074755;28;20269;-84
2023/12/26 14:21:14;;;;;;;9.77;3.47;;;;;;;;;;5074915;28;20246;-84
2023/12/26 14:23:42;;;;;;;8.15;2.97;;;;;;;;;;5076092;28;20243;-84
2023/12/26 14:26:46;;;;;;;6.43;2.72;;;;;;;;;;5075085;28;20696;-83
2023/12/26 14:29:13;;;;;;;6.43;2.63;;;;;;;;;;5074926;28;20218;-84
2023/12/26 14:32:18;;;;;;;5.28;2.13;;;;;;;;;;5075509;28;20254;-84
2023/12/26 14:34:45;;;;;;;3.78;1.55;;;;;;;;;;5075656;28;20234;-84
2023/12/26 14:37:53;;;;;;;3.78;2.33;;;;;;;;;;5074919;28;20223;-84
2023/12/26 14:40:21;;;;;;;8.15;2.95;;;;;;;;;;5075468;28;20231;-84
2023/12/26 14:43:25;;;;;;;4.47;1.88;;;;;;;;;;5074612;28;20233;-83
2023/12/26 14:45:52;;;;;;;5.45;2.88;;;;;;;;;;5058662;28;20230;-86
2023/12/26 14:48:56;;;;;;;2.80;1.83;;;;;;;;;;5054627;28;20231;-84
2023/12/26 14:51:24;;;;;;;5.10;2.05;;;;;;;;;;5054469;28;20289;-84
2023/12/26 14:53:51;;;;;;;5.57;2.38;;;;;;;;;;5054745;28;20309;-84
2023/12/26 14:56:56;;;;;;;7.05;3.00;;;;;;;;;;5054630;28;20581;-83
2023/12/26 14:59:23;;;;;;;3.65;1.85;;;;;;;;;;5054213;28;20255;-84
2023/12/26 15:01:56;;;;;;;3.90;1.95;;;;;;;;;;5054589;28;20696;-84
2023/12/26 15:04:23;;;;;;;6.82;2.80;;;;;;;;;;5055034;28;20402;-84
2023/12/26 15:06:50;;;;;;;2.97;1.60;;;;;;;;;;5054748;28;20244;-84
2023/12/26 15:09:17;;;;;;;12.25;4.65;;;;;;;;;;5054844;28;20236;-84
2023/12/26 15:11:45;;;;;;;3.60;1.98;;;;;;;;;;5054733;28;20223;-84
2023/12/26 15:14:12;;;;;;;2.65;1.20;;;;;;;;;;5054033;28;20281;-83
2023/12/26 15:16:59;;;;;;;5.20;1.60;;;;;;;;;;5055656;28;20207;-84
2023/12/26 15:19:26;;;;;;;3.85;2.00;;;;;;;;;;5055171;28;20200;-84
2023/12/26 15:21:54;;;;;;;3.20;1.80;;;;;;;;;;5055194;28;20223;-84
2023/12/26 15:24:21;;;;;;;6.35;2.30;;;;;;;;;;5055453;28;20188;-84
2023/12/26 15:26:48;;;;;;;8.23;2.38;;;;;;;;;;5061850;28;20222;-84
2023/12/26 15:29:16;;;;;;;6.45;2.53;;;;;;;;;;5073073;28;20191;-82
2023/12/26 15:31:45;;;;;;;2.80;1.90;;;;;;;;;;5073421;28;20222;-83
2023/12/26 15:34:12;;;;;;;9.68;3.35;;;;;;;;;;5057472;28;20238;-83
2023/12/26 15:36:41;;;;;;;8.55;2.90;;;;;;;;;;5073548;28;20231;-83
2023/12/26 15:39:10;;;;;;;7.88;2.75;;;;;;;;;;5064371;28;20235;-83
2023/12/26 15:41:37;;;;;;;9.38;4.15;;;;;;;;;;5053893;28;20239;-83
2023/12/26 15:44:05;;;;;;;7.82;3.58;;;;;;;;;;5067298;28;20241;-83
2023/12/26 15:46:32;;;;;;;9.50;3.80;;;;;;;;;;5082954;28;20223;-83
2023/12/26 15:49:00;;;;;;;20.48;5.05;;;;;;;;;;5072781;28;20226;-83
2023/12/26 15:51:27;;;;;;;9.93;4.00;;;;;;;;;;5073914;28;20215;-83
2023/12/26 15:53:54;;;;;;;8.20;3.33;;;;;;;;;;5073579;28;20243;-84
2023/12/26 15:56:23;;;;;;;16.55;5.00;;;;;;;;;;5074152;28;20207;-83
2023/12/26 15:58:51;;;;;;;15.43;3.25;;;;;;;;;;5072787;28;20224;-82
2023/12/26 16:01:20;;;;;;;9.98;3.22;;;;;;;;;;5073275;28;20215;-83
2023/12/26 16:03:52;;;;;;;5.32;2.13;;;;;;;;;;5072793;28;20310;-82
2023/12/26 16:06:21;;;;;;;5.30;2.20;;;;;;;;;;5073909;28;20766;-82
2023/12/26 16:08:49;;;;;;;5.10;2.10;;;;;;;;;;5071034;28;20692;-81
2023/12/26 16:11:16;;;;;;;5.38;2.03;;;;;;;;;;5072643;28;20242;-80
2023/12/26 16:13:43;;;;;;;2.13;1.60;;;;;;;;;;5070893;28;20235;-81
2023/12/26 16:16:12;;;;;;;1.98;1.40;;;;;;;;;;5072884;28;20231;-82
2023/12/26 16:18:39;;;;;;;2.83;1.15;;;;;;;;;;5058147;28;20259;-82
2023/12/26 16:21:07;;;;;;;6.07;2.17;;;;;;;;;;5053199;28;20220;-82
2023/12/26 16:23:34;;;;;;;3.47;1.70;;;;;;;;;;5072459;28;20307;-82
2023/12/26 16:26:05;;;;;;;3.05;1.60;;;;;;;;;;5072980;28;20226;-81
2023/12/26 16:28:33;;;;;;;3.00;2.00;;;;;;;;;;5071504;28;21258;-81
2023/12/26 16:31:02;;;;;;;7.13;3.15;;;;;;;;;;5072828;28;20223;-82
2023/12/26 16:33:29;;;;;;;2.10;1.50;;;;;;;;;;5068928;28;20289;-81
2023/12/26 16:35:58;;;;;;;6.97;3.38;;;;;;;;;;5072710;28;20238;-83
2023/12/26 16:38:25;;;;;;;12.65;4.28;;;;;;;;;;5071948;28;20316;-81
2023/12/26 16:40:55;;;;;;;9.15;3.55;;;;;;;;;;5071467;28;20227;-82
2023/12/26 16:43:22;;;;;;;9.98;2.97;;;;;;;;;;5072206;28;20305;-81
2023/12/26 16:45:49;;;;;;;4.18;2.28;;;;;;;;;;5072675;28;20219;-81
2023/12/26 16:48:16;;;;;;;5.70;3.22;;;;;;;;;;5071005;28;20219;-83
2023/12/26 16:50:43;;;;;;;7.72;3.00;;;;;;;;;;5072150;28;20254;-81
2023/12/26 16:53:10;;;;;;;7.80;3.38;;;;;;;;;;5071655;28;20227;-82
2023/12/26 16:55:38;;;;;;;4.10;2.20;;;;;;;;;;5070528;28;20250;-82
2023/12/26 16:58:05;;;;;;;4.95;2.92;;;;;;;;;;5071632;28;20223;-82
2023/12/26 17:00:32;;;;;;;14.15;4.97;;;;;;;;;;5071656;28;20581;-82
2023/12/26 17:03:03;;;;;;;9.30;3.45;;;;;;;;;;5065422;28;20302;-82
2023/12/26 17:05:31;;;;;;;8.43;3.33;;;;;;;;;;5071788;28;20751;-82
2023/12/26 17:07:58;;;;;;;13.20;6.00;;;;;;;;;;5071722;28;20230;-82
2023/12/26 17:10:25;;;;;;;15.45;5.70;;;;;;;;;;5071382;28;20243;-81
2023/12/26 17:12:52;;;;;;;27.00;6.93;;;;;;;;;;5072280;28;20663;-83
2023/12/26 17:15:19;;;;;;;17.65;5.00;;;;;;;;;;5070902;28;20246;-82
2023/12/26 17:17:46;;;;;;;26.77;6.60;;;;;;;;;;5076411;28;20230;-81
2023/12/26 17:20:14;;;;;;;13.35;6.55;;;;;;;;;;5077154;28;20234;-82
2023/12/26 17:22:41;;;;;;;14.93;5.18;;;;;;;;;;5070828;28;20246;-81
2023/12/26 17:25:09;;;;;;;21.50;5.68;;;;;;;;;;5070217;28;21016;-81
2023/12/26 17:27:36;;;;;;;13.20;5.05;;;;;;;;;;5070658;28;20332;-81
2023/12/26 17:30:06;;;;;;;7.47;4.43;;;;;;;;;;5070675;28;20310;-81
2023/12/26 17:32:33;;;;;;;10.90;3.72;;;;;;;;;;5070626;28;20277;-81
2023/12/26 17:35:02;;;;;;;14.65;4.13;;;;;;;;;;5053236;28;20234;-81